createdAt,value
2022-08-05T00:00:20.906Z,2.53
2022-08-05T00:02:51.008Z,2.70
2022-08-05T00:06:02.555Z,2.10
2022-08-05T00:08:33.062Z,2.60
2022-08-05T00:11:20.343Z,3.00
2022-08-05T00:13:53.366Z,3.20
2022-08-05T00:16:35.461Z,2.50
2022-08-05T00:19:13.172Z,2.10
2022-08-05T00:21:43.829Z,2.07
2022-08-05T00:24:11.943Z,2.30
2022-08-05T00:26:55.905Z,2.40
2022-08-05T00:29:32.923Z,3.03
2022-08-05T00:32:13.364Z,2.70
2022-08-05T00:35:04.557Z,2.80
2022-08-05T00:37:51.018Z,3.03
2022-08-05T00:40:27.423Z,3.10
2022-08-05T00:42:58.859Z,2.10
2022-08-05T00:45:38.619Z,2.17
2022-08-05T00:48:15.896Z,2.40
2022-08-05T00:50:46.750Z,2.67
2022-08-05T00:54:00.791Z,2.43
2022-08-05T00:56:22.718Z,1.90
2022-08-05T00:58:51.027Z,2.33
2022-08-05T01:01:42.447Z,2.33
2022-08-05T01:04:15.834Z,2.10
2022-08-05T01:06:51.796Z,2.10
2022-08-05T01:09:20.511Z,2.43
2022-08-05T01:11:51.849Z,2.40
2022-08-05T01:14:28.735Z,2.83
2022-08-05T01:17:05.677Z,2.07
2022-08-05T01:20:01.854Z,2.97
2022-08-05T01:22:40.926Z,2.20
2022-08-05T01:25:40.545Z,2.13
2022-08-05T01:28:31.699Z,2.47
2022-08-05T01:31:05.551Z,2.20
2022-08-05T01:33:40.750Z,2.23
2022-08-05T01:36:16.008Z,1.97
2022-08-05T01:38:48.441Z,2.50
2022-08-05T01:41:22.614Z,2.60
2022-08-05T01:43:56.584Z,2.53
2022-08-05T01:46:42.417Z,1.90
2022-08-05T01:49:24.046Z,2.03
2022-08-05T01:51:59.191Z,3.30
2022-08-05T01:54:45.857Z,2.60
2022-08-05T01:58:09.880Z,2.53
2022-08-05T02:00:12.553Z,2.77
2022-08-05T02:02:46.419Z,2.40
2022-08-05T02:05:28.751Z,2.80
2022-08-05T02:08:01.391Z,2.57
2022-08-05T02:10:36.984Z,2.40
2022-08-05T02:13:16.037Z,2.30
2022-08-05T02:15:54.792Z,2.77
2022-08-05T02:18:34.585Z,2.53
2022-08-05T02:21:15.134Z,2.33
2022-08-05T02:23:47.332Z,3.03
2022-08-05T02:26:23.783Z,2.73
2022-08-05T02:28:58.277Z,2.73
2022-08-05T02:31:34.610Z,2.70
2022-08-05T02:34:05.854Z,2.97
2022-08-05T02:36:40.202Z,2.80
2022-08-05T02:39:15.163Z,3.07
2022-08-05T02:41:57.742Z,2.57
2022-08-05T02:44:31.049Z,2.80
2022-08-05T02:47:10.186Z,3.00
2022-08-05T02:49:42.546Z,3.03
2022-08-05T02:52:29.639Z,3.70
2022-08-05T02:58:11.547Z,3.10
2022-08-05T03:00:31.386Z,2.57
2022-08-05T03:03:02.719Z,2.87
2022-08-05T03:06:53.762Z,3.20
2022-08-05T03:08:30.454Z,2.90
2022-08-05T03:11:55.599Z,2.70
2022-08-05T03:13:51.977Z,3.53
2022-08-05T03:16:31.547Z,2.70
2022-08-05T03:19:16.995Z,3.33
2022-08-05T03:21:48.702Z,3.60
2022-08-05T03:24:27.562Z,3.47
2022-08-05T03:27:13.924Z,4.00
2022-08-05T03:30:07.364Z,3.20
2022-08-05T03:32:37.648Z,3.60
2022-08-05T03:35:22.220Z,3.43
2022-08-05T03:37:50.158Z,4.00
2022-08-05T03:40:24.355Z,4.37
2022-08-05T03:43:15.921Z,3.90
2022-08-05T03:45:57.329Z,4.07
2022-08-05T03:48:27.110Z,4.20
2022-08-05T03:52:39.253Z,3.90
2022-08-05T03:56:05.199Z,3.63
2022-08-05T03:56:53.302Z,3.60
2022-08-05T03:59:24.785Z,3.47
2022-08-05T04:01:54.521Z,4.47
2022-08-05T04:04:28.146Z,3.50
2022-08-05T04:06:58.950Z,3.80
2022-08-05T04:09:28.046Z,4.50
2022-08-05T04:11:57.134Z,4.70
2022-08-05T04:14:30.343Z,4.77
2022-08-05T04:17:03.107Z,4.80
2022-08-05T04:19:44.134Z,4.60
2022-08-05T04:22:20.545Z,4.70
2022-08-05T04:24:52.690Z,4.23
2022-08-05T04:27:41.751Z,4.37
2022-08-05T04:30:14.031Z,5.00
2022-08-05T04:32:45.346Z,5.50
2022-08-05T04:35:19.548Z,5.90
2022-08-05T04:38:02.995Z,5.63
2022-08-05T04:40:38.892Z,6.13
2022-08-05T04:43:16.702Z,5.63
2022-08-05T04:45:55.609Z,6.47
2022-08-05T04:48:27.496Z,5.37
2022-08-05T04:51:03.237Z,5.73
2022-08-05T04:53:39.628Z,5.40
2022-08-05T04:56:33.769Z,5.20
2022-08-05T04:58:59.156Z,4.77
2022-08-05T05:02:05.769Z,4.73
2022-08-05T05:04:20.103Z,5.50
2022-08-05T05:06:57.390Z,5.40
2022-08-05T05:09:29.165Z,4.90
2022-08-05T05:12:03.070Z,4.77
2022-08-05T05:14:32.202Z,5.83
2022-08-05T05:17:00.364Z,6.67
2022-08-05T05:19:37.272Z,8.67
2022-08-05T05:22:23.797Z,8.43
2022-08-05T05:25:00.168Z,10.63
2022-08-05T05:27:45.911Z,10.80
2022-08-05T05:30:30.604Z,11.20
2022-08-05T05:33:09.134Z,13.50
2022-08-05T05:35:50.541Z,14.97
2022-08-05T05:38:22.925Z,15.77
2022-08-05T05:40:58.816Z,16.53
2022-08-05T05:43:57.478Z,18.60
2022-08-05T05:46:18.778Z,20.03
2022-08-05T05:48:49.878Z,21.13
2022-08-05T05:51:23.102Z,18.40
2022-08-05T05:53:57.723Z,15.57
2022-08-05T05:56:35.720Z,15.90
2022-08-05T05:59:06.475Z,15.23
2022-08-05T06:01:39.598Z,15.80
2022-08-05T06:04:16.947Z,15.90
2022-08-05T06:06:47.407Z,17.03
2022-08-05T06:09:25.750Z,16.50
2022-08-05T06:12:01.354Z,15.70
2022-08-05T06:14:34.636Z,15.63
2022-08-05T06:17:22.494Z,16.00
2022-08-05T06:19:56.927Z,15.20
2022-08-05T06:22:33.389Z,16.03
2022-08-05T06:25:59.857Z,18.90
2022-08-05T06:28:12.384Z,19.57
2022-08-05T06:30:45.414Z,17.50
2022-08-05T06:33:19.171Z,16.00
2022-08-05T06:36:07.642Z,17.67
2022-08-05T06:38:35.845Z,14.33
2022-08-05T06:41:13.999Z,12.97
2022-08-05T06:44:00.259Z,11.73
2022-08-05T06:46:37.204Z,12.53
2022-08-05T06:49:07.527Z,15.60
2022-08-05T06:51:50.234Z,10.00
2022-08-05T06:54:19.180Z,9.40
2022-08-05T06:56:54.670Z,8.60
2022-08-05T06:59:42.381Z,8.97
2022-08-05T07:02:22.999Z,8.80
2022-08-05T07:04:50.997Z,10.50
2022-08-05T07:07:24.111Z,9.33
2022-08-05T07:10:08.216Z,9.27
2022-08-05T07:12:54.347Z,8.63
2022-08-05T07:16:01.285Z,8.83
2022-08-05T07:18:32.379Z,9.47
2022-08-05T07:21:04.656Z,8.00
2022-08-05T07:23:33.565Z,9.93
2022-08-05T07:26:10.092Z,11.10
2022-08-05T07:28:41.939Z,9.27
2022-08-05T07:31:13.627Z,10.70
2022-08-05T07:33:43.642Z,9.17
2022-08-05T07:36:20.709Z,9.63
2022-08-05T07:38:54.690Z,10.77
2022-08-05T07:42:08.290Z,8.67
2022-08-05T07:44:19.254Z,10.97
2022-08-05T07:46:50.421Z,8.57
2022-08-05T07:49:19.386Z,10.23
2022-08-05T07:51:53.186Z,8.30
2022-08-05T07:54:30.903Z,10.43
2022-08-05T07:57:16.969Z,9.30
2022-08-05T07:59:50.141Z,9.33
2022-08-05T08:02:21.485Z,8.43
2022-08-05T08:04:54.979Z,8.77
2022-08-05T08:07:23.421Z,7.87
2022-08-05T08:09:55.345Z,6.30
2022-08-05T08:12:35.674Z,6.67
2022-08-05T08:15:15.842Z,7.90
2022-08-05T08:17:52.332Z,6.00
2022-08-05T08:20:44.175Z,7.33
2022-08-05T08:24:01.654Z,6.33
2022-08-05T08:26:04.728Z,5.10
2022-08-05T08:28:37.244Z,5.67
2022-08-05T08:31:21.158Z,5.90
2022-08-05T08:33:53.268Z,5.03
2022-08-05T08:36:38.176Z,5.00
2022-08-05T08:39:15.622Z,5.20
2022-08-05T08:41:59.813Z,4.97
2022-08-05T08:45:19.057Z,5.63
2022-08-05T08:48:06.618Z,6.53
2022-08-05T08:50:31.103Z,4.50
2022-08-05T08:53:11.976Z,5.47
2022-08-05T08:56:04.591Z,5.60
2022-08-05T08:58:43.875Z,6.40
2022-08-05T09:01:20.028Z,4.57
2022-08-05T09:03:54.540Z,4.63
2022-08-05T09:06:30.786Z,5.43
2022-08-05T09:09:01.092Z,4.67
2022-08-05T09:11:50.414Z,4.70
2022-08-05T09:14:56.648Z,4.80
2022-08-05T09:17:15.980Z,4.30
2022-08-05T09:20:04.654Z,4.20
2022-08-05T09:23:19.242Z,4.50
2022-08-05T09:26:02.927Z,4.00
2022-08-05T09:28:35.963Z,4.10
2022-08-05T09:31:22.440Z,4.37
2022-08-05T09:33:58.473Z,4.00
2022-08-05T09:36:38.291Z,3.40
2022-08-05T09:39:18.226Z,4.57
2022-08-05T09:41:58.483Z,3.73
2022-08-05T09:44:40.324Z,4.13
2022-08-05T09:47:15.393Z,3.80
2022-08-05T09:50:00.991Z,3.70
2022-08-05T09:52:32.719Z,3.30
2022-08-05T09:55:56.506Z,4.30
2022-08-05T09:57:58.848Z,3.30
2022-08-05T10:00:29.575Z,4.03
2022-08-05T10:02:59.146Z,3.10
2022-08-05T10:05:32.662Z,3.77
2022-08-05T10:08:35.203Z,3.90
2022-08-05T10:10:54.074Z,3.90
2022-08-05T10:13:31.546Z,3.97
2022-08-05T10:16:32.132Z,4.27
2022-08-05T10:19:08.483Z,3.83
2022-08-05T10:21:40.259Z,3.40
2022-08-05T10:24:12.937Z,3.70
2022-08-05T10:26:51.387Z,4.37
2022-08-05T10:30:05.725Z,3.80
2022-08-05T10:32:55.079Z,3.80
2022-08-05T10:35:01.145Z,4.10
2022-08-05T10:37:37.151Z,3.57
2022-08-05T10:40:28.004Z,4.33
2022-08-05T10:43:04.512Z,4.20
2022-08-05T10:45:42.109Z,4.00
2022-08-05T10:48:52.357Z,3.20
2022-08-05T10:51:28.935Z,3.30
2022-08-05T10:54:23.202Z,4.07
2022-08-05T10:56:52.890Z,3.50
2022-08-05T11:00:02.483Z,5.57
2022-08-05T11:02:34.887Z,4.70
2022-08-05T11:05:10.266Z,4.57
2022-08-05T11:08:03.254Z,4.60
2022-08-05T11:10:38.243Z,5.20
2022-08-05T11:13:57.767Z,5.00
2022-08-05T11:16:47.757Z,3.83
2022-08-05T11:20:10.081Z,5.93
2022-08-05T11:22:42.210Z,3.80
2022-08-05T11:26:04.517Z,3.40
2022-08-05T11:28:51.470Z,3.90
2022-08-05T11:31:57.115Z,3.70
2022-08-05T11:34:22.532Z,4.40
2022-08-05T11:36:54.491Z,6.00
2022-08-05T11:40:00.661Z,3.07
2022-08-05T11:42:40.224Z,2.77
2022-08-05T11:45:14.444Z,2.77
2022-08-05T11:47:54.817Z,2.03
2022-08-05T11:50:25.125Z,2.73
2022-08-05T11:52:57.935Z,2.10
2022-08-05T11:55:31.992Z,2.40
2022-08-05T11:58:09.586Z,2.33
2022-08-05T12:00:41.394Z,2.77
2022-08-05T12:03:28.548Z,4.03
2022-08-05T12:06:10.023Z,2.77
2022-08-05T12:08:49.902Z,3.43
2022-08-05T12:11:21.421Z,2.03
2022-08-05T12:13:58.609Z,2.90
2022-08-05T12:16:29.662Z,2.67
2022-08-05T12:18:57.592Z,2.30
2022-08-05T12:21:30.052Z,2.57
2022-08-05T12:24:04.990Z,1.80
2022-08-05T12:26:36.718Z,2.30
2022-08-05T12:29:09.440Z,2.30
2022-08-05T12:31:49.862Z,2.10
2022-08-05T12:34:25.771Z,2.47
2022-08-05T12:36:57.006Z,2.17
2022-08-05T12:39:34.300Z,2.57
2022-08-05T12:42:10.069Z,2.03
2022-08-05T12:44:44.946Z,2.20
2022-08-05T12:47:25.558Z,2.30
2022-08-05T12:50:04.782Z,2.70
2022-08-05T12:52:39.487Z,2.43
2022-08-05T12:55:23.799Z,2.47
2022-08-05T12:58:49.151Z,2.27
2022-08-05T13:02:04.165Z,2.50
2022-08-05T13:03:39.014Z,2.30
2022-08-05T13:06:15.910Z,2.10
2022-08-05T13:08:52.333Z,2.00
2022-08-05T13:11:25.304Z,2.17
2022-08-05T13:14:25.122Z,2.23
2022-08-05T13:17:05.264Z,2.00
2022-08-05T13:19:40.435Z,2.63
2022-08-05T13:22:29.561Z,2.40
2022-08-05T13:25:05.769Z,2.40
2022-08-05T13:27:39.102Z,2.07
2022-08-05T13:30:35.274Z,2.70
2022-08-05T13:33:00.894Z,2.40
2022-08-05T13:35:31.518Z,2.10
2022-08-05T13:38:28.657Z,2.87
2022-08-05T13:41:03.626Z,3.30
2022-08-05T13:43:44.496Z,3.40
2022-08-05T13:46:35.814Z,3.37
2022-08-05T13:49:10.399Z,2.90
2022-08-05T13:51:41.669Z,2.10
2022-08-05T13:54:15.352Z,2.10
2022-08-05T13:56:51.235Z,2.83
2022-08-05T13:59:23.759Z,2.57
2022-08-05T14:01:57.826Z,1.70
2022-08-05T14:04:49.695Z,2.27
2022-08-05T14:07:26.204Z,1.93
2022-08-05T14:10:08.370Z,2.07
2022-08-05T14:12:38.167Z,1.73
2022-08-05T14:16:08.817Z,2.00
2022-08-05T14:17:57.804Z,2.00
2022-08-05T14:20:27.842Z,2.20
2022-08-05T14:22:56.064Z,1.30
2022-08-05T14:25:28.090Z,2.00
2022-08-05T14:27:58.371Z,2.10
2022-08-05T14:30:28.015Z,2.00
2022-08-05T14:32:56.642Z,1.70
2022-08-05T14:35:37.551Z,1.80
2022-08-05T14:38:33.212Z,1.50
2022-08-05T14:41:06.194Z,1.60
2022-08-05T14:44:00.309Z,1.97
2022-08-05T14:46:28.117Z,2.13
2022-08-05T14:48:58.734Z,1.50
2022-08-05T14:51:31.100Z,1.43
2022-08-05T14:54:26.656Z,1.50
2022-08-05T14:56:47.321Z,1.70
2022-08-05T14:59:16.915Z,1.10
2022-08-05T15:01:48.826Z,1.53
2022-08-05T15:04:17.429Z,1.30
2022-08-05T15:06:49.121Z,1.20
2022-08-05T15:09:51.743Z,1.20
2022-08-05T15:12:09.519Z,1.17
2022-08-05T15:14:48.171Z,1.37
2022-08-05T15:17:47.709Z,1.30
2022-08-05T15:20:18.558Z,1.83
2022-08-05T15:22:52.365Z,1.00
2022-08-05T15:25:23.678Z,1.40
2022-08-05T15:28:13.430Z,1.20
2022-08-05T15:30:45.714Z,1.00
2022-08-05T15:33:56.853Z,1.13
2022-08-05T15:36:03.930Z,1.47
2022-08-05T15:38:35.388Z,1.13
2022-08-05T15:41:22.565Z,1.30
2022-08-05T15:43:51.565Z,1.10
2022-08-05T15:46:25.200Z,1.80
2022-08-05T15:49:00.967Z,1.40
2022-08-05T15:52:13.348Z,1.60
2022-08-05T15:54:34.719Z,1.20
2022-08-05T15:57:03.507Z,1.10
2022-08-05T15:59:35.576Z,0.87
2022-08-05T16:02:09.782Z,1.00
2022-08-05T16:04:43.326Z,1.30
2022-08-05T16:07:13.214Z,1.17
2022-08-05T16:09:42.071Z,1.00
2022-08-05T16:12:12.229Z,1.17
2022-08-05T16:14:40.460Z,0.93
2022-08-05T16:17:09.939Z,0.80
2022-08-05T16:20:05.693Z,0.80
2022-08-05T16:22:27.804Z,0.70
2022-08-05T16:25:05.254Z,0.90
2022-08-05T16:28:00.872Z,0.93
2022-08-05T16:30:28.907Z,1.13
2022-08-05T16:32:59.781Z,0.70
2022-08-05T16:35:32.347Z,0.80
2022-08-05T16:38:18.752Z,0.73
2022-08-05T16:40:55.497Z,0.90
2022-08-05T16:43:31.023Z,1.23
2022-08-05T16:46:03.851Z,0.80
2022-08-05T16:48:39.388Z,0.80
2022-08-05T16:51:10.068Z,0.80
2022-08-05T16:54:05.898Z,0.70
2022-08-05T16:56:29.974Z,0.90
2022-08-05T16:58:58.211Z,0.80
2022-08-05T17:01:26.854Z,0.90
2022-08-05T17:03:56.171Z,0.80
2022-08-05T17:06:24.685Z,0.90
2022-08-05T17:08:54.459Z,0.80
2022-08-05T17:11:25.725Z,0.60
2022-08-05T17:14:05.552Z,1.30
2022-08-05T17:16:36.423Z,0.93
2022-08-05T17:19:07.785Z,0.83
2022-08-05T17:21:39.601Z,1.30
2022-08-05T17:24:19.310Z,0.90
2022-08-05T17:26:57.451Z,1.13
2022-08-05T17:29:33.484Z,1.00
2022-08-05T17:32:11.720Z,0.90
2022-08-05T17:34:50.284Z,1.03
2022-08-05T17:37:40.066Z,1.00
2022-08-05T17:40:13.439Z,0.80
2022-08-05T17:42:49.725Z,0.70
2022-08-05T17:45:21.783Z,0.77
2022-08-05T17:47:54.517Z,0.70
2022-08-05T17:50:28.504Z,0.70
2022-08-05T17:53:02.709Z,1.10
2022-08-05T17:55:39.393Z,1.50
2022-08-05T17:58:13.208Z,1.03
2022-08-05T18:00:45.331Z,0.80
2022-08-05T18:03:56.304Z,1.10
2022-08-05T18:06:11.153Z,0.80
2022-08-05T18:08:40.582Z,1.10
2022-08-05T18:11:23.637Z,0.87
2022-08-05T18:13:54.476Z,0.90
2022-08-05T18:16:23.466Z,1.07
2022-08-05T18:18:51.418Z,1.20
2022-08-05T18:21:25.903Z,0.80
2022-08-05T18:23:54.501Z,0.90
2022-08-05T18:26:29.442Z,0.80
2022-08-05T18:29:00.789Z,1.10
2022-08-05T18:31:33.797Z,1.07
2022-08-05T18:34:05.807Z,0.90
2022-08-05T18:36:36.284Z,0.90
2022-08-05T18:39:06.530Z,0.80
2022-08-05T18:41:56.501Z,0.80
2022-08-05T18:44:34.646Z,0.80
2022-08-05T18:47:04.681Z,0.87
2022-08-05T18:49:57.230Z,1.20
2022-08-05T18:52:37.808Z,0.97
2022-08-05T18:55:10.276Z,0.90
2022-08-05T18:57:50.078Z,0.90
2022-08-05T19:00:25.058Z,0.90
2022-08-05T19:02:57.537Z,1.00
2022-08-05T19:06:11.444Z,1.07
2022-08-05T19:08:30.853Z,1.00
2022-08-05T19:11:04.669Z,0.90
2022-08-05T19:13:35.556Z,0.90
2022-08-05T19:16:05.145Z,0.90
2022-08-05T19:18:53.758Z,0.80
2022-08-05T19:21:25.817Z,0.83
2022-08-05T19:24:06.525Z,0.83
2022-08-05T19:26:54.691Z,1.23
2022-08-05T19:29:26.615Z,1.00
2022-08-05T19:32:03.707Z,0.80
2022-08-05T19:34:35.169Z,1.00
2022-08-05T19:37:03.159Z,0.90
2022-08-05T19:39:32.492Z,0.70
2022-08-05T19:42:16.232Z,0.90
2022-08-05T19:44:45.092Z,1.10
2022-08-05T19:47:16.142Z,0.90
2022-08-05T19:49:46.999Z,0.90
2022-08-05T19:52:30.170Z,1.00
2022-08-05T19:55:07.268Z,1.00
2022-08-05T19:58:19.659Z,1.60
2022-08-05T20:00:37.749Z,1.10
2022-08-05T20:03:09.194Z,1.00
2022-08-05T20:05:50.301Z,1.30
2022-08-05T20:08:19.688Z,1.00
2022-08-05T20:10:51.494Z,1.40
2022-08-05T20:13:30.322Z,1.37
2022-08-05T20:16:10.372Z,1.07
2022-08-05T20:18:38.399Z,1.20
2022-08-05T20:21:07.831Z,1.10
2022-08-05T20:23:40.147Z,1.00
2022-08-05T20:26:20.979Z,1.20
2022-08-05T20:28:51.150Z,0.90
2022-08-05T20:31:37.101Z,0.90
2022-08-05T20:34:10.880Z,0.80
2022-08-05T20:36:43.157Z,1.00
2022-08-05T20:39:13.261Z,1.17
2022-08-05T20:41:43.762Z,1.10
2022-08-05T20:44:29.857Z,1.00
2022-08-05T20:47:00.855Z,1.00
2022-08-05T20:49:29.493Z,0.80
2022-08-05T20:52:06.236Z,1.00
2022-08-05T20:54:55.028Z,0.97
2022-08-05T20:57:44.135Z,1.20
2022-08-05T21:00:40.377Z,1.10
2022-08-05T21:03:07.025Z,1.40
2022-08-05T21:05:54.762Z,1.50
2022-08-05T21:08:27.956Z,1.30
2022-08-05T21:11:10.108Z,1.17
2022-08-05T21:13:48.174Z,1.13
2022-08-05T21:16:29.358Z,1.10
2022-08-05T21:19:00.110Z,0.90
2022-08-05T21:21:39.131Z,1.20
2022-08-05T21:24:13.378Z,1.47
2022-08-05T21:26:47.158Z,1.00
2022-08-05T21:29:26.690Z,1.03
2022-08-05T21:32:02.904Z,1.03
2022-08-05T21:34:31.597Z,0.90
2022-08-05T21:37:00.813Z,1.10
2022-08-05T21:39:29.816Z,1.03
2022-08-05T21:42:01.983Z,1.00
2022-08-05T21:44:32.086Z,1.50
2022-08-05T21:47:00.270Z,1.30
2022-08-05T21:49:48.181Z,1.00
2022-08-05T21:52:27.776Z,1.30
2022-08-05T21:54:56.808Z,1.20
2022-08-05T21:57:32.885Z,1.23
2022-08-05T22:00:06.031Z,1.13
2022-08-05T22:02:35.480Z,1.20
2022-08-05T22:05:04.512Z,1.13
2022-08-05T22:07:54.584Z,0.90
2022-08-05T22:10:27.056Z,1.13
2022-08-05T22:12:57.630Z,0.97
2022-08-05T22:16:02.036Z,1.00
2022-08-05T22:18:19.493Z,1.00
2022-08-05T22:20:52.696Z,1.00
2022-08-05T22:24:00.794Z,1.37
2022-08-05T22:26:49.902Z,1.10
2022-08-05T22:29:18.795Z,0.90
2022-08-05T22:31:59.609Z,1.10
2022-08-05T22:34:32.502Z,1.17
2022-08-05T22:37:00.847Z,0.97
2022-08-05T22:39:34.330Z,0.90
2022-08-05T22:42:09.430Z,1.00
2022-08-05T22:44:40.005Z,0.97
2022-08-05T22:47:09.613Z,1.37
2022-08-05T22:50:19.595Z,1.50
2022-08-05T22:52:32.703Z,1.10
2022-08-05T22:55:04.312Z,1.30
2022-08-05T22:57:46.584Z,1.30
2022-08-05T23:00:18.341Z,1.43
2022-08-05T23:02:51.824Z,1.10
2022-08-05T23:05:22.058Z,0.93
2022-08-05T23:07:50.733Z,1.70
2022-08-05T23:10:20.965Z,1.00
2022-08-05T23:12:55.200Z,1.13
2022-08-05T23:15:29.304Z,1.30
2022-08-05T23:18:03.682Z,1.30
2022-08-05T23:20:37.260Z,1.30
2022-08-05T23:23:08.237Z,0.90
2022-08-05T23:25:53.302Z,0.93
2022-08-05T23:28:28.880Z,1.27
2022-08-05T23:31:07.066Z,0.90
2022-08-05T23:34:04.982Z,1.27
2022-08-05T23:36:39.569Z,1.70
2022-08-05T23:39:17.294Z,1.03
2022-08-05T23:41:51.844Z,1.00
2022-08-05T23:44:25.139Z,1.20
2022-08-05T23:46:56.166Z,1.27
2022-08-05T23:49:35.764Z,1.60
2022-08-05T23:52:22.224Z,1.77
2022-08-05T23:54:54.362Z,1.37
2022-08-05T23:57:22.965Z,1.47
